KISP

Long Island Mac Arthur Airport

New York, New York, USA
METAR KISP 141256Z 19007KT 10SM FEW009 FEW030 SCT150 SCT250 25/22 A2988 RMK AO2 SLP117 T02500217
Observed Flight Rules
Aug-14 @ 12:56 UTC (47 minutes ago) Visual Flight Rules
Wind Visibility Clouds
190° at 7 knots 10 miles
  • Few at 900' AGL
  • Few at 3,000' AGL
  • Scattered at 15,000' AGL
  • Scattered at 25,000' AGL
Temperatures Readings
Current 25°C / 77°F
Dewpoint 22°C / 72°F
Humidity 83%
Altimeter 29.88" Hg
Pressure 1011.7 hPa
Elevation 43
METAR KISP 141256Z 19007KT 10SM FEW009 FEW030 SCT150 SCT250 25/22 A2988 RMK AO2 SLP117 T02500217
Observed Flight Rules
Aug-14 @ 12:56 UTC
(47 minutes ago)
VFR
Wind Visibility
190° at 7 knots 10 miles
Clouds
  • Few at 900' AGL
  • Few at 3,000' AGL
  • Scattered at 15,000' AGL
  • Scattered at 25,000' AGL
Temperature Dewpoint
25°C / 77°F 22°C / 72°F
Humidity Altimeter Pressure
83% 29.88" Hg 1011.7 hPa